createdAt,value
2022-08-25T00:00:20.321Z,22.00
2022-08-25T00:02:55.987Z,22.00
2022-08-25T00:05:29.089Z,21.90
2022-08-25T00:07:57.632Z,21.90
2022-08-25T00:10:25.562Z,21.70
2022-08-25T00:12:55.159Z,21.60
2022-08-25T00:15:23.616Z,21.60
2022-08-25T00:17:51.592Z,21.50
2022-08-25T00:20:20.072Z,21.50
2022-08-25T00:22:48.947Z,21.60
2022-08-25T00:25:16.901Z,21.30
2022-08-25T00:27:45.802Z,21.20
2022-08-25T00:30:16.792Z,21.20
2022-08-25T00:32:50.472Z,21.10
2022-08-25T00:35:26.106Z,21.00
2022-08-25T00:37:53.921Z,21.00
2022-08-25T00:40:22.900Z,20.90
2022-08-25T00:42:50.800Z,20.90
2022-08-25T00:45:20.147Z,20.80
2022-08-25T00:47:48.581Z,20.80
2022-08-25T00:50:17.382Z,20.70
2022-08-25T00:52:48.708Z,20.60
2022-08-25T00:55:21.694Z,20.60
2022-08-25T00:57:57.031Z,20.60
2022-08-25T01:00:29.399Z,20.60
2022-08-25T01:02:58.000Z,20.50
2022-08-25T01:05:27.085Z,20.50
2022-08-25T01:07:58.626Z,20.40
2022-08-25T01:10:27.915Z,20.20
2022-08-25T01:13:00.815Z,20.30
2022-08-25T01:15:30.893Z,20.30
2022-08-25T01:18:00.068Z,20.30
2022-08-25T01:20:32.537Z,20.20
2022-08-25T01:23:02.097Z,20.10
2022-08-25T01:25:41.558Z,20.10
2022-08-25T01:28:10.292Z,20.10
2022-08-25T01:30:38.946Z,20.00
2022-08-25T01:33:07.947Z,20.00
2022-08-25T01:35:36.989Z,19.90
2022-08-25T01:38:08.032Z,19.90
2022-08-25T01:40:36.790Z,19.90
2022-08-25T01:43:13.688Z,19.90
2022-08-25T01:45:44.080Z,19.90
2022-08-25T01:48:13.057Z,19.90
2022-08-25T01:50:42.396Z,19.80
2022-08-25T01:53:15.418Z,19.90
2022-08-25T01:55:52.888Z,19.90
2022-08-25T01:58:23.586Z,19.80
2022-08-25T02:00:54.253Z,19.70
2022-08-25T02:03:22.315Z,19.60
2022-08-25T02:05:50.271Z,19.50
2022-08-25T02:08:19.758Z,19.50
2022-08-25T02:10:47.984Z,19.60
2022-08-25T02:13:16.632Z,19.60
2022-08-25T02:15:46.342Z,19.60
2022-08-25T02:18:14.462Z,19.50
2022-08-25T02:20:42.663Z,19.50
2022-08-25T02:23:11.186Z,19.60
2022-08-25T02:25:41.275Z,19.50
2022-08-25T02:28:10.353Z,19.30
2022-08-25T02:30:41.319Z,19.30
2022-08-25T02:33:09.355Z,19.30
2022-08-25T02:35:37.607Z,19.40
2022-08-25T02:38:06.545Z,19.40
2022-08-25T02:40:34.830Z,19.40
2022-08-25T02:43:04.950Z,19.50
2022-08-25T02:45:33.077Z,19.60
2022-08-25T02:48:00.950Z,19.50
2022-08-25T02:50:28.794Z,19.50
2022-08-25T02:52:56.633Z,19.50
2022-08-25T02:55:24.571Z,19.60
2022-08-25T02:57:52.384Z,19.60
2022-08-25T03:00:22.167Z,19.50
2022-08-25T03:02:51.067Z,19.40
2022-08-25T03:05:19.063Z,19.30
2022-08-25T03:07:46.923Z,19.30
2022-08-25T03:10:18.764Z,19.30
2022-08-25T03:12:47.633Z,19.40
2022-08-25T03:15:17.480Z,19.20
2022-08-25T03:17:49.270Z,19.10
2022-08-25T03:20:18.688Z,19.10
2022-08-25T03:22:46.577Z,19.10
2022-08-25T03:25:32.236Z,18.90
2022-08-25T03:28:00.466Z,18.70
2022-08-25T03:30:30.935Z,18.60
2022-08-25T03:33:00.174Z,18.50
2022-08-25T03:35:28.127Z,18.40
2022-08-25T03:37:59.050Z,18.30
2022-08-25T03:40:27.289Z,18.30
2022-08-25T03:42:56.062Z,18.30
2022-08-25T03:45:25.122Z,18.20
2022-08-25T03:47:54.392Z,18.20
2022-08-25T03:50:24.525Z,18.20
2022-08-25T03:52:53.827Z,18.20
2022-08-25T03:55:23.867Z,18.10
2022-08-25T03:57:52.264Z,18.20
2022-08-25T04:00:21.051Z,18.30
2022-08-25T04:02:49.049Z,18.20
2022-08-25T04:05:17.241Z,18.20
2022-08-25T04:07:46.462Z,18.30
2022-08-25T04:10:15.228Z,18.20
2022-08-25T04:12:43.217Z,18.10
2022-08-25T04:15:11.967Z,18.00
2022-08-25T04:17:40.996Z,18.10
2022-08-25T04:20:10.294Z,18.10
2022-08-25T04:22:44.996Z,18.40
2022-08-25T04:25:14.632Z,18.30
2022-08-25T04:27:42.730Z,18.10
2022-08-25T04:30:11.991Z,18.20
2022-08-25T04:32:39.839Z,18.20
2022-08-25T04:35:09.092Z,18.00
2022-08-25T04:37:36.980Z,17.90
2022-08-25T04:40:05.694Z,17.90
2022-08-25T04:42:35.255Z,17.80
2022-08-25T04:45:04.117Z,17.70
2022-08-25T04:47:32.126Z,17.60
2022-08-25T04:49:59.954Z,17.60
2022-08-25T04:52:27.792Z,17.60
2022-08-25T04:54:56.487Z,17.70
2022-08-25T04:57:24.322Z,17.70
2022-08-25T04:59:54.204Z,17.80
2022-08-25T05:02:22.305Z,17.80
2022-08-25T05:04:50.192Z,17.70
2022-08-25T05:07:18.010Z,17.60
2022-08-25T05:09:45.832Z,17.50
2022-08-25T05:12:13.874Z,17.60
2022-08-25T05:14:41.682Z,17.60
2022-08-25T05:17:10.831Z,17.60
2022-08-25T05:19:38.662Z,17.60
2022-08-25T05:22:07.409Z,17.60
2022-08-25T05:24:35.314Z,17.60
2022-08-25T05:27:03.911Z,17.70
2022-08-25T05:29:31.741Z,17.80
2022-08-25T05:31:59.614Z,17.70
2022-08-25T05:34:30.101Z,17.70
2022-08-25T05:37:00.034Z,17.70
2022-08-25T05:39:28.032Z,17.60
2022-08-25T05:41:55.846Z,17.60
2022-08-25T05:44:23.688Z,17.60
2022-08-25T05:46:51.550Z,17.60
2022-08-25T05:49:19.772Z,17.80
2022-08-25T05:51:48.996Z,17.90
2022-08-25T05:54:16.999Z,17.90
2022-08-25T05:56:46.153Z,17.90
2022-08-25T05:59:13.985Z,17.80
2022-08-25T06:01:59.256Z,17.90
2022-08-25T06:04:27.077Z,17.90
2022-08-25T06:06:56.224Z,18.00
2022-08-25T06:09:24.516Z,18.10
2022-08-25T06:11:55.006Z,18.10
2022-08-25T06:14:23.603Z,18.20
2022-08-25T06:16:52.093Z,18.20
2022-08-25T06:19:21.165Z,18.30
2022-08-25T06:21:49.215Z,18.40
2022-08-25T06:24:18.369Z,18.60
2022-08-25T06:26:46.324Z,18.70
2022-08-25T06:29:14.895Z,18.70
2022-08-25T06:31:43.364Z,18.80
2022-08-25T06:34:11.852Z,18.90
2022-08-25T06:36:39.833Z,19.00
2022-08-25T06:39:08.071Z,19.10
2022-08-25T06:41:39.790Z,19.20
2022-08-25T06:44:07.986Z,19.30
2022-08-25T06:46:37.021Z,19.30
2022-08-25T06:49:05.705Z,19.30
2022-08-25T06:51:35.865Z,19.50
2022-08-25T06:54:05.208Z,19.50
2022-08-25T06:56:34.022Z,19.60
2022-08-25T06:59:04.056Z,19.70
2022-08-25T07:01:32.172Z,19.70
2022-08-25T07:04:01.717Z,19.90
2022-08-25T07:06:32.544Z,20.00
2022-08-25T07:09:01.468Z,20.10
2022-08-25T07:11:29.803Z,20.20
2022-08-25T07:13:57.629Z,20.20
2022-08-25T07:16:29.718Z,20.30
2022-08-25T07:19:00.271Z,20.40
2022-08-25T07:21:33.463Z,20.50
2022-08-25T07:24:06.411Z,20.60
2022-08-25T07:26:38.509Z,20.80
2022-08-25T07:29:09.501Z,20.90
2022-08-25T07:31:39.205Z,21.00
2022-08-25T07:34:25.611Z,21.10
2022-08-25T07:36:53.778Z,21.30
2022-08-25T07:39:21.967Z,21.40
2022-08-25T07:41:51.869Z,21.60
2022-08-25T07:44:21.159Z,21.80
2022-08-25T07:46:51.741Z,21.90
2022-08-25T07:49:23.319Z,22.10
2022-08-25T07:52:05.303Z,22.40
2022-08-25T07:54:37.766Z,23.10
2022-08-25T07:57:08.717Z,23.80
2022-08-25T07:59:39.296Z,24.50
2022-08-25T08:02:17.844Z,25.30
2022-08-25T08:04:48.740Z,26.20
2022-08-25T08:07:18.752Z,26.80
2022-08-25T08:09:48.654Z,27.40
2022-08-25T08:12:18.491Z,27.80
2022-08-25T08:14:46.853Z,28.30
2022-08-25T08:17:16.267Z,28.90
2022-08-25T08:19:45.288Z,29.40
2022-08-25T08:22:15.475Z,29.60
2022-08-25T08:24:54.450Z,30.00
2022-08-25T08:27:24.537Z,30.30
2022-08-25T08:29:53.531Z,30.50
2022-08-25T08:32:25.167Z,30.80
2022-08-25T08:34:59.389Z,30.70
2022-08-25T08:37:27.667Z,30.80
2022-08-25T08:39:55.791Z,30.90
2022-08-25T08:42:42.918Z,31.20
2022-08-25T08:45:31.147Z,31.60
2022-08-25T08:48:23.651Z,31.80
2022-08-25T08:51:00.331Z,31.70
2022-08-25T08:53:35.352Z,31.70
2022-08-25T08:56:07.882Z,31.90
2022-08-25T08:58:43.933Z,32.00
2022-08-25T09:01:17.336Z,32.20
2022-08-25T09:03:55.206Z,32.50
2022-08-25T09:06:28.051Z,32.60
2022-08-25T09:08:58.701Z,32.30
2022-08-25T09:11:38.218Z,32.30
2022-08-25T09:14:19.406Z,32.50
2022-08-25T09:16:57.598Z,32.60
2022-08-25T09:19:57.456Z,32.30
2022-08-25T09:22:39.072Z,32.60
2022-08-25T09:25:22.051Z,32.50
2022-08-25T09:28:07.734Z,32.50
2022-08-25T09:30:45.570Z,32.70
2022-08-25T09:33:16.213Z,32.70
2022-08-25T09:35:53.807Z,32.60
2022-08-25T09:38:22.314Z,32.70
2022-08-25T09:40:52.811Z,33.10
2022-08-25T09:43:23.483Z,33.10
2022-08-25T09:45:59.534Z,33.20
2022-08-25T09:48:29.670Z,33.30
2022-08-25T09:51:02.958Z,33.50
2022-08-25T09:53:33.737Z,33.40
2022-08-25T09:56:06.781Z,33.30
2022-08-25T09:58:34.967Z,33.80
2022-08-25T10:01:18.842Z,34.20
2022-08-25T10:03:59.169Z,34.10
2022-08-25T10:06:31.156Z,34.00
2022-08-25T10:09:01.777Z,33.80
2022-08-25T10:11:48.566Z,33.70
2022-08-25T10:14:27.546Z,33.90
2022-08-25T10:17:14.787Z,34.00
2022-08-25T10:19:43.114Z,33.90
2022-08-25T10:22:21.592Z,33.80
2022-08-25T10:24:50.597Z,33.90
2022-08-25T10:27:28.813Z,33.50
2022-08-25T10:30:14.237Z,33.90
2022-08-25T10:33:01.496Z,33.90
2022-08-25T10:35:35.923Z,34.10
2022-08-25T10:38:21.980Z,34.00
2022-08-25T10:40:58.115Z,34.00
2022-08-25T10:43:34.813Z,34.00
2022-08-25T10:46:14.090Z,33.70
2022-08-25T10:48:57.113Z,33.70
2022-08-25T10:51:41.935Z,33.80
2022-08-25T10:54:30.241Z,33.70
2022-08-25T10:57:12.635Z,33.90
2022-08-25T10:59:51.863Z,34.00
2022-08-25T11:02:50.833Z,34.20
2022-08-25T11:05:27.082Z,34.20
2022-08-25T11:08:00.680Z,34.30
2022-08-25T11:10:39.554Z,34.40
2022-08-25T11:13:13.466Z,34.30
2022-08-25T11:16:06.543Z,34.30
2022-08-25T11:18:40.174Z,34.70
2022-08-25T11:21:13.818Z,34.40
2022-08-25T11:23:45.377Z,34.40
2022-08-25T11:26:17.900Z,34.30
2022-08-25T11:28:55.289Z,34.60
2022-08-25T11:31:25.932Z,34.80
2022-08-25T11:34:00.351Z,34.60
2022-08-25T11:36:32.029Z,34.70
2022-08-25T11:39:11.573Z,34.40
2022-08-25T11:41:51.648Z,34.00
2022-08-25T11:44:53.110Z,33.90
2022-08-25T11:47:48.365Z,33.80
2022-08-25T11:50:30.127Z,33.80
2022-08-25T11:53:00.735Z,33.40
2022-08-25T11:55:46.723Z,33.60
2022-08-25T11:58:31.342Z,33.40
2022-08-25T12:01:01.348Z,33.30
2022-08-25T12:03:55.188Z,32.80
2022-08-25T12:06:27.766Z,32.50
2022-08-25T12:09:17.917Z,32.40
2022-08-25T12:12:20.667Z,32.40
2022-08-25T12:14:52.448Z,32.50
2022-08-25T12:17:26.835Z,32.50
2022-08-25T12:20:00.288Z,32.40
2022-08-25T12:22:58.292Z,32.20
2022-08-25T12:25:35.757Z,32.00
2022-08-25T12:28:12.688Z,32.10
2022-08-25T12:30:48.066Z,32.00
2022-08-25T12:33:33.915Z,32.00
2022-08-25T12:36:05.534Z,32.10
2022-08-25T12:38:39.865Z,31.90
2022-08-25T12:41:13.210Z,31.90
2022-08-25T12:43:43.213Z,31.90
2022-08-25T12:46:35.028Z,31.90
2022-08-25T12:49:04.598Z,31.90
2022-08-25T12:51:57.510Z,31.80
2022-08-25T12:54:40.227Z,31.80
2022-08-25T12:57:32.567Z,31.70
2022-08-25T13:00:05.991Z,31.70
2022-08-25T13:03:04.629Z,31.70
2022-08-25T13:06:05.771Z,31.30
2022-08-25T13:09:21.489Z,31.10
2022-08-25T13:11:57.770Z,31.20
2022-08-25T13:14:37.597Z,31.20
2022-08-25T13:17:06.513Z,31.10
2022-08-25T13:19:36.587Z,31.10
2022-08-25T13:22:16.102Z,31.00
2022-08-25T13:27:29.028Z,30.90
2022-08-25T13:29:59.772Z,30.90
2022-08-25T13:32:35.092Z,30.90
2022-08-25T13:35:20.078Z,30.80
2022-08-25T13:37:47.459Z,30.80
2022-08-25T13:40:25.931Z,30.80
2022-08-25T13:42:57.587Z,30.70
2022-08-25T13:45:28.275Z,30.60
2022-08-25T13:47:56.589Z,30.70
2022-08-25T13:50:37.027Z,30.70
2022-08-25T13:53:07.658Z,30.60
2022-08-25T13:55:51.751Z,30.60
2022-08-25T13:58:24.646Z,30.60
2022-08-25T14:01:23.217Z,30.60
2022-08-25T14:04:19.322Z,30.50
2022-08-25T14:06:48.605Z,30.40
2022-08-25T14:09:27.995Z,30.50
2022-08-25T14:11:58.751Z,30.40
2022-08-25T14:14:36.089Z,30.50
2022-08-25T14:17:22.272Z,30.50
2022-08-25T14:19:57.365Z,30.50
2022-08-25T14:22:27.123Z,30.40
2022-08-25T14:24:56.350Z,30.40
2022-08-25T14:27:24.359Z,30.40
2022-08-25T14:29:52.993Z,30.40
2022-08-25T14:32:21.076Z,30.30
2022-08-25T14:34:49.122Z,30.40
2022-08-25T14:37:19.898Z,30.40
2022-08-25T14:39:49.152Z,30.40
2022-08-25T14:42:17.040Z,30.40
2022-08-25T14:44:45.793Z,30.30
2022-08-25T14:47:13.729Z,30.30
2022-08-25T14:49:45.752Z,30.30
2022-08-25T14:52:20.188Z,30.30
2022-08-25T14:54:52.201Z,30.30
2022-08-25T14:57:20.652Z,30.30
2022-08-25T14:59:49.978Z,30.30
2022-08-25T15:02:20.489Z,30.30
2022-08-25T15:04:53.487Z,30.30
2022-08-25T15:07:38.639Z,30.20
2022-08-25T15:10:13.533Z,30.20
2022-08-25T15:12:47.896Z,30.20
2022-08-25T15:15:16.235Z,30.20
2022-08-25T15:17:49.421Z,30.20
2022-08-25T15:20:18.262Z,30.20
2022-08-25T15:22:48.064Z,30.20
2022-08-25T15:25:18.579Z,30.20
2022-08-25T15:27:46.869Z,30.20
2022-08-25T15:30:15.895Z,30.20
2022-08-25T15:32:44.027Z,30.20
2022-08-25T15:35:16.609Z,30.10
2022-08-25T15:37:44.533Z,30.10
2022-08-25T15:40:12.787Z,30.00
2022-08-25T15:42:42.901Z,30.00
2022-08-25T15:45:14.329Z,29.90
2022-08-25T15:47:42.142Z,29.90
2022-08-25T15:50:14.426Z,29.90
2022-08-25T15:52:46.699Z,29.80
2022-08-25T15:55:16.449Z,29.80
2022-08-25T15:57:45.651Z,29.80
2022-08-25T16:00:16.646Z,29.80
2022-08-25T16:02:46.369Z,29.70
2022-08-25T16:05:16.546Z,29.70
2022-08-25T16:07:45.806Z,29.60
2022-08-25T16:10:14.308Z,29.60
2022-08-25T16:12:42.751Z,29.60
2022-08-25T16:15:12.861Z,29.60
2022-08-25T16:17:43.166Z,29.50
2022-08-25T16:20:14.080Z,29.50
2022-08-25T16:22:42.908Z,29.50
2022-08-25T16:25:12.231Z,29.40
2022-08-25T16:27:40.084Z,29.40
2022-08-25T16:30:10.387Z,29.40
2022-08-25T16:32:42.942Z,29.30
2022-08-25T16:35:13.094Z,29.30
2022-08-25T16:37:41.488Z,29.30
2022-08-25T16:40:13.509Z,29.20
2022-08-25T16:42:43.007Z,29.20
2022-08-25T16:45:11.663Z,29.10
2022-08-25T16:47:39.643Z,29.10
2022-08-25T16:50:12.215Z,29.00
2022-08-25T16:52:58.225Z,29.00
2022-08-25T16:55:29.011Z,29.00
2022-08-25T16:58:07.987Z,28.90
2022-08-25T17:00:38.157Z,28.90
2022-08-25T17:03:07.091Z,28.80
2022-08-25T17:05:42.162Z,28.80
2022-08-25T17:08:31.609Z,28.70
2022-08-25T17:11:09.020Z,28.70
2022-08-25T17:13:37.659Z,28.60
2022-08-25T17:16:05.924Z,28.50
2022-08-25T17:18:33.814Z,28.40
2022-08-25T17:21:04.982Z,28.30
2022-08-25T17:23:34.233Z,28.30
2022-08-25T17:26:02.844Z,28.20
2022-08-25T17:28:33.687Z,28.10
2022-08-25T17:31:01.932Z,28.00
2022-08-25T17:33:30.336Z,28.00
2022-08-25T17:36:00.347Z,27.90
2022-08-25T17:38:31.394Z,27.80
2022-08-25T17:41:03.331Z,27.70
2022-08-25T17:43:33.813Z,27.60
2022-08-25T17:46:01.761Z,27.50
2022-08-25T17:48:33.105Z,27.40
2022-08-25T17:51:02.626Z,27.30
2022-08-25T17:53:31.803Z,27.20
2022-08-25T17:56:02.245Z,27.10
2022-08-25T17:58:31.763Z,27.10
2022-08-25T18:00:59.746Z,27.20
2022-08-25T18:03:29.260Z,27.30
2022-08-25T18:05:57.520Z,27.20
2022-08-25T18:08:32.085Z,27.30
2022-08-25T18:11:05.271Z,27.40
2022-08-25T18:13:33.170Z,27.40
2022-08-25T18:16:01.243Z,27.20
2022-08-25T18:18:30.750Z,27.00
2022-08-25T18:20:58.554Z,26.90
2022-08-25T18:23:27.670Z,26.80
2022-08-25T18:26:00.783Z,26.80
2022-08-25T18:28:30.811Z,26.70
2022-08-25T18:30:58.864Z,26.50
2022-08-25T18:33:26.952Z,26.40
2022-08-25T18:35:58.206Z,26.40
2022-08-25T18:38:44.212Z,26.40
2022-08-25T18:41:13.567Z,26.30
2022-08-25T18:43:43.388Z,26.30
2022-08-25T18:46:11.824Z,26.30
2022-08-25T18:48:39.781Z,26.20
2022-08-25T18:51:10.411Z,26.10
2022-08-25T18:53:50.218Z,26.00
2022-08-25T18:56:19.675Z,25.80
2022-08-25T18:58:49.045Z,25.70
2022-08-25T19:01:19.001Z,25.60
2022-08-25T19:03:47.385Z,25.50
2022-08-25T19:06:16.191Z,25.50
2022-08-25T19:08:45.111Z,25.50
2022-08-25T19:11:13.419Z,25.40
2022-08-25T19:13:41.600Z,25.30
2022-08-25T19:16:12.488Z,25.30
2022-08-25T19:18:41.908Z,25.20
2022-08-25T19:21:10.503Z,25.10
2022-08-25T19:23:39.112Z,25.20
2022-08-25T19:26:08.698Z,25.10
2022-08-25T19:28:48.868Z,25.10
2022-08-25T19:31:19.148Z,25.00
2022-08-25T19:33:49.286Z,24.90
2022-08-25T19:36:23.914Z,24.80
2022-08-25T19:39:01.615Z,24.70
2022-08-25T19:41:36.325Z,24.70
2022-08-25T19:44:04.533Z,24.60
2022-08-25T19:46:37.583Z,24.60
2022-08-25T19:49:08.785Z,24.70
2022-08-25T19:51:38.309Z,24.60
2022-08-25T19:54:08.957Z,24.40
2022-08-25T19:56:44.035Z,24.30
2022-08-25T19:59:26.610Z,24.30
2022-08-25T20:02:04.158Z,24.30
2022-08-25T20:04:32.026Z,24.10
2022-08-25T20:07:00.295Z,24.10
2022-08-25T20:09:39.090Z,23.90
2022-08-25T20:12:09.270Z,23.90
2022-08-25T20:14:37.432Z,23.90
2022-08-25T20:17:14.446Z,23.90
2022-08-25T20:19:51.894Z,23.80
2022-08-25T20:22:22.512Z,23.70
2022-08-25T20:24:56.026Z,23.80
2022-08-25T20:27:33.832Z,23.70
2022-08-25T20:30:03.236Z,23.70
2022-08-25T20:32:33.853Z,23.60
2022-08-25T20:35:01.898Z,23.40
2022-08-25T20:37:29.947Z,23.30
2022-08-25T20:39:58.140Z,23.30
2022-08-25T20:42:26.272Z,23.00
2022-08-25T20:44:54.642Z,22.90
2022-08-25T20:47:22.646Z,22.80
2022-08-25T20:49:51.883Z,22.80
2022-08-25T20:52:21.005Z,22.70
2022-08-25T20:54:50.491Z,22.70
2022-08-25T20:57:25.691Z,22.60
2022-08-25T20:59:55.231Z,22.60
2022-08-25T21:02:24.099Z,22.50
2022-08-25T21:04:54.066Z,22.50
2022-08-25T21:07:25.475Z,22.50
2022-08-25T21:09:53.812Z,22.40
2022-08-25T21:12:22.190Z,22.40
2022-08-25T21:14:50.709Z,22.30
2022-08-25T21:17:19.461Z,22.20
2022-08-25T21:22:22.404Z,22.00
2022-08-25T21:24:51.401Z,21.90
2022-08-25T21:27:19.219Z,21.90
2022-08-25T21:29:54.528Z,21.80
2022-08-25T21:32:23.270Z,21.80
2022-08-25T21:34:53.386Z,21.80
2022-08-25T21:37:22.930Z,21.80
2022-08-25T21:39:50.954Z,21.80
2022-08-25T21:42:19.683Z,21.80
2022-08-25T21:44:47.557Z,21.80
2022-08-25T21:47:15.799Z,21.80
2022-08-25T21:49:49.530Z,21.70
2022-08-25T21:52:17.775Z,21.60
2022-08-25T21:54:47.400Z,21.60
2022-08-25T21:57:17.822Z,21.60
2022-08-25T21:59:47.065Z,21.60
2022-08-25T22:02:19.169Z,21.60
2022-08-25T22:04:52.094Z,21.50
2022-08-25T22:07:20.007Z,21.50
2022-08-25T22:09:50.805Z,21.40
2022-08-25T22:12:18.711Z,21.40
2022-08-25T22:14:47.419Z,21.40
2022-08-25T22:17:16.712Z,21.30
2022-08-25T22:19:45.461Z,21.30
2022-08-25T22:22:15.694Z,21.20
2022-08-25T22:24:50.439Z,21.20
2022-08-25T22:27:18.674Z,21.00
2022-08-25T22:29:47.452Z,21.00
2022-08-25T22:32:15.632Z,21.10
2022-08-25T22:34:43.633Z,21.20
2022-08-25T22:37:11.922Z,21.10
2022-08-25T22:39:40.307Z,21.00
2022-08-25T22:42:09.781Z,21.00
2022-08-25T22:44:39.540Z,21.00
2022-08-25T22:47:09.262Z,21.00
2022-08-25T22:49:39.843Z,20.90
2022-08-25T22:52:09.240Z,20.90
2022-08-25T22:54:39.884Z,21.00
2022-08-25T22:57:09.059Z,20.80
2022-08-25T22:59:38.138Z,20.70
2022-08-25T23:02:06.545Z,20.50
2022-08-25T23:04:34.482Z,20.60
2022-08-25T23:07:02.691Z,20.50
2022-08-25T23:09:30.537Z,20.50
2022-08-25T23:11:58.817Z,20.50
2022-08-25T23:14:28.027Z,20.50
2022-08-25T23:16:56.129Z,20.40
2022-08-25T23:19:24.248Z,20.40
2022-08-25T23:22:10.408Z,20.50
2022-08-25T23:24:42.629Z,20.70
2022-08-25T23:27:12.683Z,20.70
2022-08-25T23:29:44.341Z,20.60
2022-08-25T23:32:14.331Z,20.50
2022-08-25T23:34:46.604Z,20.50
2022-08-25T23:37:16.083Z,20.40
2022-08-25T23:39:46.420Z,20.30
2022-08-25T23:42:17.481Z,20.30
2022-08-25T23:44:47.884Z,20.20
2022-08-25T23:47:15.825Z,20.10
2022-08-25T23:49:43.673Z,20.10
2022-08-25T23:52:11.492Z,20.00
2022-08-25T23:54:39.411Z,19.90
2022-08-25T23:57:07.639Z,19.80
2022-08-25T23:59:37.406Z,19.80
